Canyon, MN (55717)

10:57 PM CDT on July 23, 2014 (GMT -0500)
Brevator Township (KMNSAGIN3) Elev 1329 ft | 46.85 °N, 92.47 °W | Change Station
Active Advisory: Areal Flood Warning

Current weather conditions updated 36 minutes ago

Clear
Clear
57.1 °F
Feels Like 57.1 °F
N
0.0
Wind Variable Wind from NNW
Gusts 0.0 mph

Tomorrow is forecast to be nearly the same temperature as today.

Today
High -- | Low -- °F
--% Chance of Precip.
Yesterday
High -- | Low -- °F
Precip. -- in
5:38 AM 8:53 PM
Waning Crescent, 7% visible
Pressure 30.19 in
Visibility 10.0 miles
Clouds Few 5000 ft
Dew Point 55 °F
Humidity 94%
Rainfall 0.00 in
Snow Depth Not available.
UV 0 out of 12
Pollen 5.20 out of 12
Air Quality Not available.
Flu Activity Not available.
METAR KDLH 240255Z 10003KT 10SM FEW050 17/13 A3019 RMK AO2 SLP223 T01670128 55003

More Conditions Fewer Conditions

Pressure 30.19 in
Visibility 10.0 miles
Clouds Few 5000 ft
Dew Point 55 °F
Humidity 94%
Rainfall 0.00 in
Snow Depth Not available.
UV 0 out of 12
Pollen 5.20 out of 12
Air Quality Not available.
Flu Activity Not available.
METAR KDLH 240255Z 10003KT 10SM FEW050 17/13 A3019 RMK AO2 SLP223 T01670128 55003

More Conditions Fewer Conditions

10-Day Weather Forecast

Almanac

Astronomy

Jul. 23, 2014 Rise Set
Actual Time 5:38 AM CDT 8:53 PM CDT
Civil Twilight 5:01 AM CDT 9:30 PM CDT
Nautical Twilight 4:13 AM CDT 10:18 PM CDT
Astronomical Twilight 3:11 AM CDT 11:18 PM CDT
Moon 2:59 AM CDT (7/23) 6:21 PM CDT (7/23)
Length of Visible Light 16h 29m
Length of Day
15h 15m
Tomorrow will be 2m 16s shorter.
Waning Crescent, 7% of the Moon is Illuminated
Today
Waning Crescent
Jul 26
New
Aug 3
First Quarter
Aug 10
Full
Aug 17
Last Quarter

Today's Extremes

State Highs State Lows

Community

WunderPhotos

Upload Photos

1,736,891 photos uploaded!

Nearby

Snow Depth

Station Depth Elevation
No new snow has been reported.

Earthquake Activity

City Distance Mag. Time & Date
No recent earthquake activity has been reported nearby.
Minimum magnitude displayed is 2.5.

Coastal Water Temperatures

Place Temperature
No Stations Reporting

Nearby Weather Stations

Station Location Temp. Dew Point Humidity Wind Precip. Elev Updated Type
Brevator Township, Saginaw, MN 57.1 °F 55 °F 94% NNW  at  0.0 mph 0.00 in / hr 1329 ft 10:20 PM CDT Rapid Fire
Canosia twp, Duluth, MN 56.5 °F 55 °F 94% North  at  0.0 mph 0.00 in / hr 1438 ft 10:57 PM CDT Rapid Fire
Leisure Lake,Mn, Makinen, MN 56.5 °F 54 °F 92% SSW  at  0.0 mph - / hr 1427 ft 10:46 PM CDT Normal
Hermantown - Loren, Duluth, MN 56.2 °F 55 °F 94% ENE  at  0.0 mph - / hr 1410 ft 10:44 PM CDT Normal

Show More Stations Show Fewer Stations